Granby, Massachusetts
Current Conditions -  °F | °C
As of 4:47 AM on Sunday 26 Oct 2014 (Local Time) from KCEF Reporting Station
Scattered Clouds Scattered Clouds  
Wind Chill: 52°   Ceiling: Unl
Heat Index: 52°   Visibility: 10mi
Dew Point: 43°   Wind: 13mph
Humidity: 71%   Direction: 200°SSW
Pressure: 29.47"   Gusts: NA
Location:  42.26°N, 72.53°W
Report Text: KCEF 260847Z AUTO 20011KT 10SM SCT070 11/06 A2947 RMK AO2 WSHFT 36
Loading
Personal Weather Stations






























Interactive Weather Map
Tropical Storm Tracking
New forecast layout! Learn more

10-Day Weather Forecast

Advertisements
Track Severe Weather on mobile